• Join FlightAware (Why Join?)
  • Login
  • US Flag 
Rudolph Flight #1: Arrived! 
07:29AM EST


 

Airport Tracker/Info


-or-


 

Live Flight TrackerFlight Track Log ✈ OAE961 ✈ 24-Dec-2012 ✈ PHNL - KFAT

Flight Track Log - Related Links

Times and Time Zones

All times are in EST time to prevent confusion due to time zone crossing. See the OAE961 flight status page for this flight to view local times or setup timezone preferences in your user account.

Time Position Orientation Groundspeed Altitude Reporting Facility
EST Latitude Longitude Course Direction KTS MPH feet Rate Location/Type
03:21AM 21.3000 -157.8833 148° Southeast 180 207 1,100  Level Honolulu Center
03:22AM 21.2500 -157.8500 148° Southeast 230 265 2,600 1,860 Climbing Honolulu Center
03:23AM 21.2000 -157.8000 137° Southeast 260 299 4,900 2,520 Climbing Honolulu Center
03:24AM 21.2000 -157.7167 90° East 270 311 7,700 2,640 Climbing Honolulu Center
03:25AM 21.2000 -157.6333 90° East 290 334 10,200 1,860 Climbing Honolulu Center
03:26AM 21.2667 -157.5833 35° Northeast 330 380 11,500 1,200 Climbing Honolulu Center
03:27AM 21.3667 -157.5500 17° North 390 449 12,600 1,320 Climbing Honolulu Center
03:28AM 21.4833 -157.5000 22° Northeast 420 483 14,200 1,680 Climbing Honolulu Center
03:29AM 21.5833 -157.4500 25° Northeast 440 506 16,000 1,740 Climbing Honolulu Center
03:30AM 21.7167 -157.4000 19° North 460 529 17,700 1,800 Climbing Honolulu Center
03:31AM 21.8333 -157.3333 28° Northeast 470 541 19,600 1,860 Climbing Honolulu Center
03:32AM 21.9667 -157.2833 19° North 480 552 21,500 1,680 Climbing Honolulu Center
03:33AM 22.0667 -157.2333 25° Northeast 490 564 23,000 1,560 Climbing Honolulu Center
03:34AM 22.2000 -157.1667 25° Northeast 500 575 24,700 1,500 Climbing Honolulu Center
03:35AM 22.3333 -157.1000 25° Northeast 510 587 26,100 1,620 Climbing Honolulu Center
03:36AM 22.4667 -157.0500 19° North 520 598 28,000 1,920 Climbing Honolulu Center
03:37AM 22.5833 -156.9833 28° Northeast 510 587 30,000 1,740 Climbing Honolulu Center
03:38AM 22.7167 -156.9333 19° North 500 575 31,600 1,500 Climbing Honolulu Center
03:39AM 22.8500 -156.8667 25° Northeast 500 575 33,000 660 Climbing Honolulu Center
03:40AM 22.9833 -156.8000 25° Northeast 510 587 33,000  Level Honolulu Center
03:41AM 23.1167 -156.7500 19° North 510 587 33,000  Level Honolulu Center
03:42AM 23.2333 -156.6833 28° Northeast 510 587 33,000  Level Honolulu Center
03:43AM 23.4000 -156.6167 20° North 510 587 33,000  Level Honolulu Center
03:44AM 23.5167 -156.5500 28° Northeast 500 575 33,000  Level Honolulu Center
03:45AM 23.6500 -156.4833 25° Northeast 500 575 33,000  Level Honolulu Center
03:46AM 23.7833 -156.4333 19° North 510 587 33,000  Level Honolulu Center
03:47AM 23.9167 -156.3667 25° Northeast 510 587 33,000  Level Honolulu Center
03:49AM 24.0840 -156.2370 55° Northeast  Level FlightAware Approximate
03:56AM 24.6705 -155.3039 55° Northeast  Level FlightAware Approximate
03:57AM 24.7622 -155.1777 55° Northeast  Level FlightAware Approximate
03:58AM 24.8461 -155.0441 55° Northeast  Level FlightAware Approximate
03:58AM 24.7167 -155.2667 55° Northeast 539 620 33,000  Level Oakland Oceanic (ODAPS)
03:59AM 24.9300 -154.9103 55° Northeast  Level FlightAware Approximate
04:00AM 25.0137 -154.7763 55° Northeast  Level FlightAware Approximate
04:01AM 25.0972 -154.6421 55° Northeast  Level FlightAware Approximate
04:02AM 25.1807 -154.5078 56° Northeast  Level FlightAware Approximate
04:03AM 25.2641 -154.3732 56° Northeast  Level FlightAware Approximate
04:04AM 25.1587 -154.4241 56° Northeast 539 620 33,000  Level Estimated
04:05AM 25.2432 -154.2905 55° Northeast  Level FlightAware Approximate
04:06AM 25.3276 -154.1566 55° Northeast  Level FlightAware Approximate
04:07AM 25.4118 -154.0226 55° Northeast  Level FlightAware Approximate
04:08AM 25.4960 -153.8884 55° Northeast  Level FlightAware Approximate
04:09AM 25.5800 -153.7540 55° Northeast  Level FlightAware Approximate
04:10AM 25.6639 -153.6194 55° Northeast  Level FlightAware Approximate
04:11AM 25.7477 -153.4847 55° Northeast  Level FlightAware Approximate
04:12AM 25.8313 -153.3497 55° Northeast  Level FlightAware Approximate
04:13AM 25.9148 -153.2146 55° Northeast  Level FlightAware Approximate
04:14AM 25.9982 -153.0792 56° Northeast  Level FlightAware Approximate
04:15AM 26.0815 -152.9437 56° Northeast  Level FlightAware Approximate
04:16AM 26.1646 -152.8080 56° Northeast  Level FlightAware Approximate
04:17AM 26.2477 -152.6720 56° Northeast  Level FlightAware Approximate
04:18AM 26.3305 -152.5359 56° Northeast  Level FlightAware Approximate
04:19AM 26.4133 -152.3996 56° Northeast  Level FlightAware Approximate
04:20AM 26.4959 -152.2631 56° Northeast  Level FlightAware Approximate
04:21AM 26.5784 -152.1264 56° Northeast  Level FlightAware Approximate
04:22AM 26.6608 -151.9895 56° Northeast  Level FlightAware Approximate
04:23AM 26.7430 -151.8524 56° Northeast  Level FlightAware Approximate
04:24AM 26.8252 -151.7151 56° Northeast  Level FlightAware Approximate
04:25AM 26.9071 -151.5777 56° Northeast  Level FlightAware Approximate
04:26AM 26.9890 -151.4400 56° Northeast  Level FlightAware Approximate
04:27AM 27.0707 -151.3021 56° Northeast  Level FlightAware Approximate
04:28AM 27.1522 -151.1640 56° Northeast  Level FlightAware Approximate
04:29AM 27.2337 -151.0257 56° Northeast  Level FlightAware Approximate
04:30AM 27.3150 -150.8872 57° Northeast  Level FlightAware Approximate
04:31AM 27.3961 -150.7485 57° Northeast  Level FlightAware Approximate
04:32AM 27.4772 -150.6096 57° Northeast  Level FlightAware Approximate
04:33AM 27.5581 -150.4705 57° Northeast  Level FlightAware Approximate
04:34AM 27.6388 -150.3312 57° Northeast  Level FlightAware Approximate
04:35AM 27.7194 -150.1917 57° Northeast  Level FlightAware Approximate
04:36AM 27.7999 -150.0519 57° Northeast  Level FlightAware Approximate
04:37AM 27.8802 -149.9120 57° Northeast  Level FlightAware Approximate
04:38AM 27.9604 -149.7719 57° Northeast  Level FlightAware Approximate
04:39AM 28.0404 -149.6315 57° Northeast  Level FlightAware Approximate
04:40AM 28.1203 -149.4910 57° Northeast  Level FlightAware Approximate
04:41AM 28.2001 -149.3502 57° Northeast  Level FlightAware Approximate
04:42AM 28.2797 -149.2092 57° Northeast  Level FlightAware Approximate
04:43AM 28.3592 -149.0680 57° Northeast  Level FlightAware Approximate
04:44AM 28.4385 -148.9266 57° Northeast  Level FlightAware Approximate
04:45AM 28.5039 -148.7762 58° Northeast  Level Estimated
04:45AM 28.5167 -148.8333 58° Northeast 540 621 33,000  Level Oakland Oceanic (ODAPS)
04:46AM 28.5827 -148.6342 58° Northeast  Level FlightAware Approximate
04:47AM 28.6614 -148.4921 58° Northeast  Level FlightAware Approximate
04:48AM 28.7399 -148.3497 58° Northeast  Level FlightAware Approximate
04:49AM 28.8183 -148.2071 58° Northeast  Level FlightAware Approximate
04:50AM 28.8965 -148.0643 58° Northeast  Level FlightAware Approximate
04:51AM 28.9048 -147.9263 59° Northeast 540 621 33,000  Level Estimated
04:52AM 28.9909 -147.7894 54° Northeast  Level FlightAware Approximate
04:53AM 29.0769 -147.6524 54° Northeast  Level FlightAware Approximate
04:54AM 29.1628 -147.5150 54° Northeast  Level FlightAware Approximate
04:55AM 29.2485 -147.3775 54° Northeast  Level FlightAware Approximate
04:56AM 29.3341 -147.2397 55° Northeast  Level FlightAware Approximate
04:57AM 29.4142 -147.1065 59° Northeast  Level FlightAware Approximate
04:58AM 29.4906 -146.9615 59° Northeast  Level FlightAware Approximate
04:59AM 29.5669 -146.8164 59° Northeast  Level FlightAware Approximate
05:00AM 29.6430 -146.6711 59° Northeast  Level FlightAware Approximate
05:01AM 29.7190 -146.5255 59° Northeast  Level FlightAware Approximate
05:02AM 29.7947 -146.3797 59° Northeast  Level FlightAware Approximate
05:03AM 29.8704 -146.2337 59° Northeast  Level FlightAware Approximate
05:04AM 29.9458 -146.0875 59° Northeast  Level FlightAware Approximate
05:05AM 30.0212 -145.9410 59° Northeast  Level FlightAware Approximate
05:06AM 30.0963 -145.7943 59° Northeast  Level FlightAware Approximate
05:07AM 30.1713 -145.6474 59° Northeast  Level FlightAware Approximate
05:08AM 30.2461 -145.5003 59° Northeast  Level FlightAware Approximate
05:09AM 30.3207 -145.3530 60° Northeast  Level FlightAware Approximate
05:10AM 30.3952 -145.2054 60° Northeast  Level FlightAware Approximate
05:11AM 30.4695 -145.0576 60° Northeast  Level FlightAware Approximate
05:12AM 30.5437 -144.9096 60° Northeast  Level FlightAware Approximate
05:13AM 30.6177 -144.7613 60° Northeast  Level FlightAware Approximate
05:14AM 30.6915 -144.6129 60° Northeast  Level FlightAware Approximate
05:15AM 30.7652 -144.4642 60° Northeast  Level FlightAware Approximate
05:16AM 30.8386 -144.3152 60° Northeast  Level FlightAware Approximate
05:17AM 30.9119 -144.1661 60° Northeast  Level FlightAware Approximate
05:18AM 30.9851 -144.0167 60° Northeast  Level FlightAware Approximate
05:19AM 31.0581 -143.8671 60° Northeast  Level FlightAware Approximate
05:20AM 31.1308 -143.7172 60° Northeast  Level FlightAware Approximate
05:21AM 31.2035 -143.5672 60° Northeast  Level FlightAware Approximate
05:22AM 31.2759 -143.4169 61° Northeast  Level FlightAware Approximate
05:23AM 31.3482 -143.2663 61° Northeast  Level FlightAware Approximate
05:24AM 31.4203 -143.1156 61° Northeast  Level FlightAware Approximate
05:25AM 31.4922 -142.9646 61° Northeast  Level FlightAware Approximate
05:26AM 31.5639 -142.8133 61° Northeast  Level FlightAware Approximate
05:27AM 31.6355 -142.6619 61° Northeast  Level FlightAware Approximate
05:28AM 31.7069 -142.5102 61° Northeast  Level FlightAware Approximate
05:28AM 31.9833 -141.9167 62° Northeast 577 664 33,000  Level Oakland Oceanic (ODAPS)
05:29AM 31.7780 -142.3582 61° Northeast  Level FlightAware Approximate
05:30AM 31.8491 -142.2061 61° Northeast  Level FlightAware Approximate
05:31AM 31.9199 -142.0537 61° Northeast  Level FlightAware Approximate
05:32AM 31.9903 -141.9009 63° Northeast  Level FlightAware Approximate
05:33AM 32.0580 -141.7463 63° Northeast  Level FlightAware Approximate
05:34AM 32.2565 -141.0578 62° Northeast 577 664 33,000  Level Estimated
05:35AM 32.4014 -141.0256 11° North  Level FlightAware Approximate
05:36AM 32.2565 -141.0578 191° South  Level FlightAware Approximate
05:37AM 32.4014 -141.0256 11° North  Level FlightAware Approximate
05:38AM 32.2565 -141.0578 191° South  Level FlightAware Approximate
05:39AM 32.3077 -140.8942 62° Northeast  Level Estimated
05:40AM 32.3951 -140.7536 54° Northeast  Level FlightAware Approximate
05:41AM 32.4824 -140.6126 54° Northeast  Level FlightAware Approximate
05:42AM 32.5695 -140.4715 54° Northeast  Level FlightAware Approximate
05:43AM 32.6565 -140.3300 54° Northeast  Level FlightAware Approximate
05:44AM 32.7433 -140.1882 54° Northeast  Level FlightAware Approximate
05:45AM 32.8130 -140.0445 62° Northeast  Level FlightAware Approximate
05:46AM 32.8810 -139.8887 62° Northeast  Level FlightAware Approximate
05:47AM 32.9489 -139.7327 63° Northeast  Level FlightAware Approximate
05:48AM 33.0166 -139.5765 63° Northeast  Level FlightAware Approximate
05:49AM 33.0841 -139.4200 63° Northeast  Level FlightAware Approximate
05:50AM 33.1515 -139.2632 63° Northeast  Level FlightAware Approximate
05:51AM 33.2189 -139.1065 63° Northeast  Level FlightAware Approximate
05:52AM 33.2862 -138.9495 63° Northeast  Level FlightAware Approximate
05:53AM 33.3533 -138.7923 63° Northeast  Level FlightAware Approximate
05:54AM 33.4202 -138.6348 63° Northeast  Level FlightAware Approximate
05:55AM 33.4869 -138.4771 63° Northeast  Level FlightAware Approximate
05:56AM 33.5530 -138.3189 64° Northeast  Level FlightAware Approximate
05:57AM 33.6183 -138.1601 64° Northeast  Level FlightAware Approximate
05:58AM 33.6834 -138.0011 64° Northeast  Level FlightAware Approximate
05:59AM 33.7482 -137.8418 64° Northeast  Level FlightAware Approximate
06:00AM 33.8129 -137.6823 64° Northeast  Level FlightAware Approximate
06:01AM 33.8774 -137.5225 64° Northeast  Level FlightAware Approximate
06:02AM 33.9416 -137.3625 64° Northeast  Level FlightAware Approximate
06:03AM 34.0057 -137.2022 64° Northeast  Level FlightAware Approximate
06:04AM 34.0695 -137.0417 64° Northeast  Level FlightAware Approximate
06:05AM 34.1332 -136.8810 64° Northeast  Level FlightAware Approximate
06:06AM 34.1964 -136.7202 65° Northeast  Level FlightAware Approximate
06:07AM 34.2594 -136.5592 65° Northeast  Level FlightAware Approximate
06:08AM 34.3222 -136.3979 65° Northeast  Level FlightAware Approximate
06:09AM 34.3848 -136.2364 65° Northeast  Level FlightAware Approximate
06:10AM 34.4472 -136.0746 65° Northeast  Level FlightAware Approximate
06:10AM 34.9833 -134.7000 66° East 576 663 35,000  Level Oakland Oceanic (ODAPS)
06:11AM 34.5094 -135.9126 65° Northeast  Level FlightAware Approximate
06:12AM 34.5714 -135.7503 65° Northeast  Level FlightAware Approximate
06:13AM 34.6331 -135.5878 65° Northeast  Level FlightAware Approximate
06:14AM 34.6946 -135.4251 65° Northeast  Level FlightAware Approximate
06:15AM 34.7560 -135.2621 65° Northeast  Level FlightAware Approximate
06:16AM 34.8171 -135.0989 65° Northeast  Level FlightAware Approximate
06:17AM 35.1823 -133.5984 67° East 576 663 35,000  Level Estimated
06:18AM 35.1829 -133.7786 270° West  Level FlightAware Approximate
06:19AM 35.1833 -133.9589 270° West  Level FlightAware Approximate
06:20AM 35.1833 -134.1391 270° West  Level FlightAware Approximate
06:21AM 35.2120 -134.0359 66° East  Level FlightAware Approximate
06:22AM 35.2706 -133.8704 67° East  Level FlightAware Approximate
06:23AM 35.3289 -133.7046 67° East  Level FlightAware Approximate
06:24AM 35.3870 -133.5386 67° East  Level FlightAware Approximate
06:25AM 35.4449 -133.3724 67° East  Level FlightAware Approximate
06:26AM 35.5025 -133.2059 67° East  Level FlightAware Approximate
06:27AM 35.5607 -133.0396 66° East  Level FlightAware Approximate
06:28AM 35.6195 -132.8735 66° East  Level FlightAware Approximate
06:29AM 35.6780 -132.7072 67° East  Level FlightAware Approximate
06:30AM 35.7363 -132.5406 67° East  Level FlightAware Approximate
06:31AM 35.7944 -132.3737 67° East  Level FlightAware Approximate
06:32AM 35.8522 -132.2066 67° East  Level FlightAware Approximate
06:33AM 35.9099 -132.0393 67° East  Level FlightAware Approximate
06:34AM 35.9673 -131.8717 67° East  Level FlightAware Approximate
06:35AM 36.0244 -131.7039 67° East  Level FlightAware Approximate
06:36AM 36.0813 -131.5358 67° East  Level FlightAware Approximate
06:37AM 36.1380 -131.3676 67° East  Level FlightAware Approximate
06:38AM 36.1945 -131.1990 67° East  Level FlightAware Approximate
06:39AM 36.2507 -131.0302 68° East  Level FlightAware Approximate
06:40AM 36.3067 -130.8612 68° East  Level FlightAware Approximate
06:41AM 36.3624 -130.6919 68° East  Level FlightAware Approximate
06:42AM 36.4179 -130.5224 68° East  Level FlightAware Approximate
06:43AM 36.4732 -130.3526 68° East  Level FlightAware Approximate
06:44AM 36.5282 -130.1826 68° East  Level FlightAware Approximate
06:45AM 36.5830 -130.0124 68° East  Level FlightAware Approximate
06:46AM 36.6375 -129.8419 68° East  Level FlightAware Approximate
06:47AM 36.6918 -129.6712 68° East  Level FlightAware Approximate
06:48AM 36.7459 -129.5002 68° East  Level FlightAware Approximate
06:49AM 36.7997 -129.3290 69° East  Level FlightAware Approximate
06:50AM 36.8532 -129.1576 69° East  Level FlightAware Approximate
06:51AM 36.9065 -128.9859 69° East  Level FlightAware Approximate
06:52AM 36.9596 -128.8140 69° East  Level FlightAware Approximate
06:52AM 37.5817 -126.7478 69° East 580 667 35,000  Level Oakland Center
06:53AM 37.0124 -128.6418 69° East  Level FlightAware Approximate
06:53AM 37.6358 -126.5583 70° East 577 664 35,000  Level Oakland Center
06:54AM 37.0650 -128.4694 69° East  Level FlightAware Approximate
06:54AM 37.6858 -126.3664 72° East 576 663 35,000  Level Oakland Center
06:55AM 37.1172 -128.2969 69° East  Level FlightAware Approximate
06:55AM 37.6831 -126.1636 91° East 576 663 35,000  Level Oakland Center
06:56AM 37.1693 -128.1243 69° East  Level FlightAware Approximate
06:56AM 37.6511 -125.9642 101° East 576 663 35,000  Level Oakland Center
06:57AM 37.2210 -127.9514 69° East  Level FlightAware Approximate
06:57AM 37.6194 -125.7658 101° East 576 663 35,000  Level Oakland Center
06:58AM 37.5883 -125.5681 101° East 577 664 35,000  Level Oakland Center
06:59AM 37.5547 -125.3711 102° East 576 663 35,000  Level Oakland Center
07:00AM 37.5206 -125.1750 102° East 577 664 35,000  Level Oakland Center
07:01AM 37.4853 -124.9761 103° East 579 666 35,000  Level Oakland Center
07:02AM 37.4514 -124.7806 102° East 578 665 35,000  Level Oakland Center
07:03AM 37.4186 -124.5844 102° East 576 663 35,000  Level Oakland Center
07:04AM 37.3858 -124.3886 102° East 575 662 35,000  Level Oakland Center
07:05AM 37.3525 -124.1939 102° East 574 661 35,000  Level Oakland Center
07:06AM 37.3192 -123.9989 103° East 573 659 35,000  Level Oakland Center
07:07AM 37.2844 -123.8047 102° East 573 659 35,000  Level Oakland Center
07:08AM 37.2500 -123.6100 103° East 574 661 35,000  Level Oakland Center
07:09AM 37.2000 -123.4030 102° East 568 654 35,000  Level FlightAware
07:10AM 37.1770 -123.2720 102° East 567 652 35,000  Level FlightAware
07:10AM 37.1500 -123.1230 103° East 566 651 35,000  Level FlightAware
07:11AM 37.1280 -123.0040 103° East 567 652 35,000  Level FlightAware
07:12AM 37.1050 -122.8740 102° East 567 652 35,000  Level FlightAware
07:12AM 37.0780 -122.7280 103° East 568 654 35,000  Level FlightAware
07:13AM 37.0540 -122.5960 103° East 565 650 35,000 -360 Level FlightAware
07:14AM 37.0260 -122.4460 103° East 559 643 34,500 -1,140 Descending FlightAware
07:15AM 37.0010 -122.3150 103° East 562 647 33,400 -1,920 Descending FlightAware
07:15AM 36.9780 -122.1900 103° East 551 634 32,000 -1,980 Descending FlightAware
07:16AM 36.9520 -122.0550 104° East 535 616 30,600 -1,920 Descending FlightAware
07:17AM 36.9290 -121.9370 104° East 521 600 29,300 -1,920 Descending FlightAware
07:17AM 36.9040 -121.8040 103° East 504 580 27,900 -1,860 Descending FlightAware
07:18AM 36.8820 -121.6940 104° East 485 558 26,700 -1,680 Descending FlightAware
07:19AM 36.8640 -121.6050 104° East 470 541 25,700 -1,680 Descending FlightAware
07:19AM 36.8400 -121.4800 103° East 457 526 24,400 -1,800 Descending FlightAware
07:20AM 36.8220 -121.3880 104° East 446 513 23,200 -1,800 Descending FlightAware
07:21AM 36.7990 -121.2710 104° East 434 499 21,900 -1,800 Descending FlightAware
07:22AM 36.7800 -121.1760 104° East 426 490 20,700 -1,320 Descending FlightAware
07:22AM 36.7570 -121.0600 104° East 422 486 19,900 -2,100 Descending FlightAware
07:23AM 36.7440 -120.9440 98° East 421 484 17,400 -1,920 Descending FlightAware
07:24AM 36.7440 -120.8630 90° East 421 484 17,400 -1,140 Level FlightAware
07:25AM 36.7650 -120.7490 77° East 412 474 15,700 -2,820 Descending FlightAware
07:25AM 36.7760 -120.6650 81° East 390 449 13,700 -2,040 Descending FlightAware
07:26AM 36.7950 -120.5230 80° East 380 437 12,500 -1,200 Descending FlightAware
07:28AM 36.8170 -120.3460 81° East 325 374 10,800 -840 Descending FlightAware
07:28AM 36.8260 -120.2710 81° East 310 357 10,800 -480 Level FlightAware
07:29AM 36.8340 -120.2060 81° East 298 343 10,200 -1,080 Descending FlightAware
07:29AM 36.8410 -120.1530 81° East 289 333 9,600 -1,320 Descending FlightAware
07:30AM 36.8480 -120.1050 80° East 286 329 8,900 -1,200 Descending FlightAware
07:30AM 36.8540 -120.0630 80° East 280 322 8,500 -1,140 Descending FlightAware
07:31AM 36.8590 -120.0170 82° East 276 318 7,900 -1,200 Descending FlightAware
07:31AM 36.8620 -119.9930 81° East 274 315 7,600 -1,200 Descending FlightAware
07:32AM 36.8670 -119.9530 81° East 267 307 7,100 -1,080 Descending FlightAware
07:32AM 36.8710 -119.9200 81° East 263 303 6,700 -1,140 Descending FlightAware
07:32AM 36.8770 -119.8730 81° East 260 299 6,100 -1,200 Descending FlightAware
07:33AM 36.8710 -119.8410 103° East 258 297 5,600 -1,320 Descending FlightAware
07:33AM 36.8510 -119.7870 115° Southeast 254 292 4,800 -1,200 Descending FlightAware
07:34AM 36.8390 -119.7550 115° Southeast 246 283 4,400 -1,020 Descending FlightAware
07:34AM 36.8260 -119.7180 114° Southeast 237 273 3,900 -600 Descending FlightAware
07:35AM 36.8120 -119.6800 115° Southeast 235 270 3,800 -180 Descending FlightAware
07:35AM 36.8080 -119.6690 114° Southeast 231 266 3,800  Level FlightAware
07:36AM 36.7940 -119.6310 115° Southeast 229 264 3,800 -120 Level FlightAware
07:36AM 36.7800 -119.5970 117° Southeast 218 251 3,700 -480 Descending FlightAware
07:36AM 36.7660 -119.5720 125° Southeast 220 253 3,400 -600 Descending FlightAware
07:37AM 36.7490 -119.5400 124° Southeast 214 246 3,200 -300 Descending FlightAware
07:37AM 36.7390 -119.5270 134° Southeast 211 243 3,200  Level FlightAware
07:37AM 36.7300 -119.5230 160° South 201 231 3,200  Level FlightAware
07:38AM 36.7050 -119.5370 204° Southwest 194 223 3,200  Level FlightAware
07:38AM 36.6980 -119.5480 232° Southwest 186 214 3,200  Level FlightAware
07:38AM 36.6970 -119.5630 265° West 185 213 3,200 -300 Level FlightAware
07:39AM 36.7000 -119.5920 277° West 173 199 3,000 -660 Descending FlightAware
07:39AM 36.7040 -119.6190 280° West 172 198 2,600 -900 Descending FlightAware
07:40AM 36.7140 -119.6410 300° West 162 186 2,200 -1,020 Descending FlightAware
07:40AM 36.7270 -119.6620 308° West 155 178 1,700 -900 Descending FlightAware
07:41AM 36.7380 -119.6820 304° West 154 177 1,400 -780 Descending FlightAware
07:41AM 36.7500 -119.7030 305° West 153 176 1,000 -900 Descending FlightAware
07:42AM 36.7630 -119.7240 308° West 150 173 500 -900 Descending FlightAware
07:42AM 36.7660 -119.7300 302° West 144 166 400 -540 Descending FlightAware
07:42AM 36.7750 -119.7450 307° West 145 167 200 -480 Descending FlightAware